Time;durP1;ratioP1;P1;durP2;ratioP2;P2;SDS_P1;SDS_P2;PMS_P1;PMS_P2;Temp;Humidity;BMP_temperature;BMP_pressure;BME280_temperature;BME280_humidity;BME280_pressure;Samples;Min_cycle;Max_cycle;Signal;HPM_P1;HPM_P2
2022/10/27 00:00:47;;;;;;;4.57;1.97;;;14.80;99.90;;;;;;5067456;28;21003;-82
2022/10/27 00:03:15;;;;;;;2.33;1.60;;;14.80;99.90;;;;;;5067842;28;20462;-82
2022/10/27 00:05:42;;;;;;;2.73;1.50;;;14.80;99.90;;;;;;5075235;28;20455;-81
2022/10/27 00:08:12;;;;;;;3.77;1.70;;;14.70;99.90;;;;;;5074901;28;20459;-82
2022/10/27 00:10:41;;;;;;;4.03;1.90;;;14.70;99.90;;;;;;5068130;28;20464;-82
2022/10/27 00:13:08;;;;;;;3.10;1.87;;;14.70;99.90;;;;;;5067452;28;20915;-82
2022/10/27 00:15:36;;;;;;;2.90;1.80;;;14.70;99.90;;;;;;5060888;28;20447;-81
2022/10/27 00:18:08;;;;;;;3.90;2.00;;;14.60;99.90;;;;;;5055542;28;20497;-82
2022/10/27 00:20:34;;;;;;;2.60;1.60;;;14.60;99.90;;;;;;5058354;28;20480;-81
2022/10/27 00:23:01;;;;;;;4.80;1.80;;;14.60;99.90;;;;;;5065345;28;20466;-82
2022/10/27 00:25:28;;;;;;;3.43;1.70;;;14.60;99.90;;;;;;5065833;28;20456;-82
2022/10/27 00:27:55;;;;;;;3.57;1.93;;;14.60;99.90;;;;;;5059188;28;20466;-80
2022/10/27 00:30:22;;;;;;;3.37;1.87;;;14.60;99.90;;;;;;5060161;28;20473;-82
2022/10/27 00:32:50;;;;;;;5.17;1.87;;;14.50;99.90;;;;;;5059111;28;20455;-82
2022/10/27 00:35:16;;;;;;;3.60;1.97;;;14.50;99.90;;;;;;5058937;28;20452;-82
2022/10/27 00:37:43;;;;;;;4.77;2.20;;;14.50;99.90;;;;;;5060067;28;20492;-80
2022/10/27 00:40:11;;;;;;;3.13;1.80;;;14.50;99.90;;;;;;5059254;28;20487;-81
2022/10/27 00:42:38;;;;;;;2.70;1.70;;;14.50;99.90;;;;;;5078812;28;20444;-82
2022/10/27 00:45:06;;;;;;;4.40;1.83;;;14.50;99.90;;;;;;5072136;28;20451;-81
2022/10/27 00:47:35;;;;;;;3.87;2.10;;;14.50;99.90;;;;;;5074156;28;20474;-81
2022/10/27 00:50:06;;;;;;;5.07;1.90;;;14.40;99.90;;;;;;5073687;28;20464;-81
2022/10/27 00:52:36;;;;;;;4.40;1.83;;;14.40;99.90;;;;;;5058606;28;20463;-81
2022/10/27 00:55:07;;;;;;;4.33;2.03;;;14.40;99.90;;;;;;5071408;28;20451;-82
2022/10/27 00:57:36;;;;;;;4.87;2.53;;;14.40;99.90;;;;;;5078602;28;20480;-81
2022/10/27 01:00:05;;;;;;;3.67;2.27;;;14.40;99.90;;;;;;5075513;28;20447;-82
2022/10/27 01:02:33;;;;;;;6.17;2.27;;;14.40;99.90;;;;;;5058807;28;20449;-82
2022/10/27 01:05:05;;;;;;;3.37;1.80;;;14.30;99.90;;;;;;5058478;28;20451;-83
2022/10/27 01:07:33;;;;;;;5.37;2.47;;;14.30;99.90;;;;;;5058961;28;20452;-81
2022/10/27 01:10:00;;;;;;;3.03;1.77;;;14.30;99.90;;;;;;5058173;28;20463;-82
2022/10/27 01:12:27;;;;;;;3.73;1.97;;;14.30;99.90;;;;;;5058308;28;20463;-81
2022/10/27 01:14:54;;;;;;;4.93;2.37;;;14.30;99.90;;;;;;5059964;28;20856;-82
2022/10/27 01:17:33;;;;;;;6.33;2.23;;;14.30;99.90;;;;;;5067519;28;20492;-82
2022/10/27 01:20:28;;;;;;;2.80;1.43;;;14.30;99.90;;;;;;5058648;28;20465;-83
2022/10/27 01:22:59;;;;;;;4.10;1.97;;;14.30;99.90;;;;;;5059593;28;20453;-81
2022/10/27 01:26:04;;;;;;;2.33;1.70;;;14.30;99.90;;;;;;5060324;28;20461;-83
2022/10/27 01:29:06;;;;;;;2.83;1.83;;;14.30;99.90;;;;;;5037849;28;20464;-81
2022/10/27 01:31:37;;;;;;;5.90;2.20;;;14.30;99.90;;;;;;5037870;28;20472;-82
2022/10/27 01:34:12;;;;;;;3.40;1.77;;;14.30;99.90;;;;;;5051344;28;20439;-82
2022/10/27 01:36:43;;;;;;;4.80;2.33;;;14.30;99.90;;;;;;5050408;28;20501;-82
2022/10/27 01:39:17;;;;;;;3.67;2.40;;;14.30;99.90;;;;;;5060918;28;20458;-81
2022/10/27 01:41:48;;;;;;;3.37;2.00;;;14.30;99.90;;;;;;5066421;28;20493;-82
2022/10/27 01:44:22;;;;;;;4.10;1.83;;;14.30;99.90;;;;;;5066945;28;20452;-82
2022/10/27 01:46:51;;;;;;;4.20;2.00;;;14.30;99.90;;;;;;5079040;28;21005;-82
2022/10/27 01:49:19;;;;;;;2.67;1.80;;;14.30;99.90;;;;;;5076872;28;20957;-81
2022/10/27 01:51:46;;;;;;;4.83;2.13;;;14.30;99.90;;;;;;5078578;28;20480;-82
2022/10/27 01:54:13;;;;;;;3.90;2.13;;;14.30;99.90;;;;;;5074017;28;20849;-82
2022/10/27 01:57:02;;;;;;;2.30;1.93;;;14.30;99.90;;;;;;5062705;28;20545;-82
2022/10/27 01:59:54;;;;;;;2.93;1.97;;;14.30;99.90;;;;;;5077265;28;20464;-82
2022/10/27 02:02:33;;;;;;;3.27;1.70;;;14.20;99.90;;;;;;5061846;28;20452;-82
2022/10/27 02:05:06;;;;;;;2.43;2.00;;;14.20;99.90;;;;;;5062255;28;20450;-82
2022/10/27 02:07:42;;;;;;;2.70;2.20;;;14.20;99.90;;;;;;5068091;28;20950;-81
2022/10/27 02:10:15;;;;;;;4.33;2.43;;;14.20;99.90;;;;;;5076579;28;20480;-82
2022/10/27 02:12:44;;;;;;;5.10;2.23;;;14.20;99.90;;;;;;5077234;28;20450;-82
2022/10/27 02:15:21;;;;;;;3.40;1.83;;;14.10;99.90;;;;;;5061818;28;20455;-82
2022/10/27 02:17:52;;;;;;;4.90;2.73;;;14.10;99.90;;;;;;5060527;28;20476;-82
2022/10/27 02:20:22;;;;;;;6.00;2.00;;;14.10;99.90;;;;;;5076872;28;20485;-80
2022/10/27 02:22:52;;;;;;;3.73;1.97;;;14.10;99.90;;;;;;5045022;28;20832;-82
2022/10/27 02:25:22;;;;;;;6.57;2.27;;;14.10;99.90;;;;;;5068851;28;20536;-81
2022/10/27 02:27:51;;;;;;;3.60;1.93;;;14.10;99.90;;;;;;5056673;28;20450;-82
2022/10/27 02:30:18;;;;;;;3.80;2.00;;;14.00;99.90;;;;;;5057983;28;20475;-81
2022/10/27 02:32:46;;;;;;;3.90;2.17;;;14.00;99.90;;;;;;5058674;28;20641;-83
2022/10/27 02:35:16;;;;;;;3.10;1.50;;;14.00;99.90;;;;;;5071663;28;20451;-82
2022/10/27 02:37:45;;;;;;;4.67;2.03;;;14.00;99.90;;;;;;5061462;28;20489;-81
2022/10/27 02:40:12;;;;;;;4.30;1.90;;;14.00;99.90;;;;;;5070854;28;20479;-82
2022/10/27 02:42:39;;;;;;;3.47;1.50;;;14.00;99.90;;;;;;5067726;28;20451;-82
2022/10/27 02:45:06;;;;;;;3.07;1.93;;;14.00;99.90;;;;;;5065000;28;20455;-81
2022/10/27 02:47:33;;;;;;;3.10;1.50;;;13.90;99.90;;;;;;5044079;28;20824;-82
2022/10/27 02:50:00;;;;;;;2.77;2.00;;;13.90;99.90;;;;;;5065465;28;20447;-82
2022/10/27 02:52:28;;;;;;;5.50;1.73;;;13.90;99.90;;;;;;5077880;28;20448;-82
2022/10/27 02:54:55;;;;;;;4.13;2.20;;;14.00;99.90;;;;;;5068591;28;20452;-80
2022/10/27 02:57:21;;;;;;;4.23;1.60;;;13.90;99.90;;;;;;5057838;28;20481;-81
2022/10/27 02:59:48;;;;;;;3.03;1.80;;;13.90;99.90;;;;;;5056968;28;20465;-82
2022/10/27 03:02:15;;;;;;;3.10;1.40;;;13.90;99.90;;;;;;5057924;28;20453;-82
2022/10/27 03:04:42;;;;;;;4.07;1.87;;;13.90;99.90;;;;;;5058173;28;20473;-81
2022/10/27 03:07:08;;;;;;;3.03;1.87;;;13.90;99.90;;;;;;5058538;28;20455;-82
2022/10/27 03:09:36;;;;;;;6.40;2.20;;;13.90;99.90;;;;;;5057862;28;20460;-82
2022/10/27 03:12:03;;;;;;;3.10;2.30;;;13.90;99.90;;;;;;5058337;28;20520;-83
2022/10/27 03:14:30;;;;;;;6.63;1.97;;;13.90;99.90;;;;;;5066670;28;20447;-81
2022/10/27 03:16:57;;;;;;;2.20;1.60;;;13.90;99.90;;;;;;5077374;28;20459;-83
2022/10/27 03:19:24;;;;;;;3.50;1.57;;;13.80;99.90;;;;;;5074012;28;20546;-82
2022/10/27 03:21:50;;;;;;;3.00;1.63;;;13.90;99.90;;;;;;5058175;28;20481;-83
2022/10/27 03:24:17;;;;;;;3.10;1.50;;;13.90;99.90;;;;;;5065114;28;20456;-82
2022/10/27 03:26:45;;;;;;;3.23;1.47;;;13.90;99.90;;;;;;5078773;28;20457;-81
2022/10/27 03:29:12;;;;;;;3.73;1.60;;;13.90;99.90;;;;;;5076935;28;20809;-82
2022/10/27 03:31:39;;;;;;;5.73;2.30;;;13.90;99.90;;;;;;5065493;28;20565;-83
2022/10/27 03:34:06;;;;;;;2.73;1.70;;;13.90;99.90;;;;;;5058669;28;20456;-81
2022/10/27 03:36:33;;;;;;;3.90;1.77;;;13.90;99.90;;;;;;5067129;28;20476;-82
2022/10/27 03:38:59;;;;;;;2.77;1.67;;;13.90;99.90;;;;;;5077079;28;20491;-82
2022/10/27 03:41:26;;;;;;;2.73;1.77;;;13.90;99.90;;;;;;5077811;28;20487;-82
2022/10/27 03:43:54;;;;;;;3.40;1.80;;;13.90;99.90;;;;;;5075373;28;20511;-81
2022/10/27 03:46:21;;;;;;;2.50;1.53;;;13.90;99.90;;;;;;5057562;28;20544;-81
2022/10/27 03:48:48;;;;;;;3.80;1.80;;;13.90;99.90;;;;;;5057771;28;20451;-81
2022/10/27 03:51:15;;;;;;;3.63;1.93;;;13.90;99.90;;;;;;5058174;28;20487;-82
2022/10/27 03:53:41;;;;;;;3.27;1.63;;;13.90;99.90;;;;;;5057839;28;20455;-82
2022/10/27 03:56:09;;;;;;;2.03;1.60;;;13.90;99.90;;;;;;5064111;28;20466;-81
2022/10/27 03:58:36;;;;;;;4.23;1.87;;;13.90;99.90;;;;;;5080135;28;20490;-82
2022/10/27 04:01:05;;;;;;;2.90;1.57;;;13.90;99.90;;;;;;5065078;28;20853;-82
2022/10/27 04:03:33;;;;;;;3.70;1.80;;;13.90;99.90;;;;;;5080795;28;20466;-81
2022/10/27 04:05:59;;;;;;;3.30;1.63;;;13.90;99.90;;;;;;5079957;28;20460;-82
2022/10/27 04:08:26;;;;;;;2.80;1.73;;;13.90;99.90;;;;;;5080408;28;20450;-82
2022/10/27 04:10:53;;;;;;;2.87;1.47;;;13.90;99.90;;;;;;5080853;28;20566;-82
2022/10/27 04:13:20;;;;;;;2.57;1.43;;;13.90;99.90;;;;;;5061444;28;20468;-81
2022/10/27 04:15:46;;;;;;;4.90;1.43;;;13.90;99.90;;;;;;5062195;28;20452;-81
2022/10/27 04:18:15;;;;;;;4.17;1.60;;;13.90;99.90;;;;;;5051230;28;20498;-82
2022/10/27 04:20:41;;;;;;;2.20;1.30;;;13.90;99.90;;;;;;5059214;28;20866;-81
2022/10/27 04:23:08;;;;;;;2.70;1.60;;;13.90;99.90;;;;;;5061634;28;20462;-82
2022/10/27 04:25:35;;;;;;;4.17;1.80;;;13.80;99.90;;;;;;5076871;28;20447;-82
2022/10/27 04:28:02;;;;;;;3.90;1.50;;;13.80;99.90;;;;;;5080826;28;20443;-82
2022/10/27 04:30:29;;;;;;;2.40;1.23;;;13.80;99.90;;;;;;5080286;28;20471;-82
2022/10/27 04:32:59;;;;;;;4.23;1.67;;;13.80;99.90;;;;;;5080651;28;20461;-81
2022/10/27 04:35:28;;;;;;;3.20;1.40;;;13.80;99.90;;;;;;5064000;28;20448;-82
2022/10/27 04:37:55;;;;;;;2.73;1.63;;;13.80;99.90;;;;;;5074676;28;20564;-80
2022/10/27 04:40:22;;;;;;;2.53;1.30;;;13.80;99.90;;;;;;5080034;28;20480;-82
2022/10/27 04:42:49;;;;;;;5.00;1.60;;;13.70;99.90;;;;;;5077852;28;20444;-83
2022/10/27 04:45:16;;;;;;;3.30;1.40;;;13.70;99.90;;;;;;5061597;28;20451;-82
2022/10/27 04:47:43;;;;;;;6.17;1.80;;;13.70;99.90;;;;;;5061057;28;20455;-81
2022/10/27 04:50:10;;;;;;;3.30;1.40;;;13.70;99.90;;;;;;5058949;28;20921;-83
2022/10/27 04:52:39;;;;;;;3.27;1.23;;;13.70;99.90;;;;;;5060496;28;20456;-82
2022/10/27 04:55:06;;;;;;;4.07;1.50;;;13.70;99.90;;;;;;5079417;28;20464;-80
2022/10/27 04:57:33;;;;;;;4.83;1.77;;;13.70;99.90;;;;;;5091980;28;20457;-82
2022/10/27 05:00:03;;;;;;;4.00;1.40;;;13.70;99.90;;;;;;5084294;28;20550;-82
2022/10/27 05:02:33;;;;;;;6.47;2.20;;;13.70;99.90;;;;;;5060267;28;20459;-82
2022/10/27 05:04:59;;;;;;;4.23;1.60;;;13.70;99.90;;;;;;5058450;28;20443;-83
2022/10/27 05:07:26;;;;;;;5.63;1.50;;;13.70;99.90;;;;;;5056752;28;20962;-83
2022/10/27 05:09:54;;;;;;;2.90;2.13;;;13.70;99.90;;;;;;5055483;28;20447;-82
2022/10/27 05:12:21;;;;;;;2.53;1.40;;;13.70;99.90;;;;;;5055744;28;20444;-82
2022/10/27 05:14:48;;;;;;;4.17;1.60;;;13.70;99.90;;;;;;5056282;28;20440;-83
2022/10/27 05:17:15;;;;;;;5.53;2.00;;;13.70;99.90;;;;;;5056094;28;20448;-83
2022/10/27 05:19:43;;;;;;;4.83;2.40;;;13.70;99.90;;;;;;5055378;28;21043;-82
2022/10/27 05:22:10;;;;;;;3.83;1.97;;;13.70;99.90;;;;;;5057378;28;21142;-82
2022/10/27 05:24:37;;;;;;;4.03;1.70;;;13.70;99.90;;;;;;5056476;28;20444;-82
2022/10/27 05:27:05;;;;;;;5.20;1.60;;;13.60;99.90;;;;;;5056549;28;20449;-82
2022/10/27 05:29:32;;;;;;;3.10;1.87;;;13.60;99.90;;;;;;5056021;28;20451;-82
2022/10/27 05:31:59;;;;;;;5.83;1.80;;;13.60;99.90;;;;;;5055816;28;21027;-81
2022/10/27 05:34:26;;;;;;;4.00;1.80;;;13.60;99.90;;;;;;5055602;28;20512;-82
2022/10/27 05:36:52;;;;;;;2.30;1.80;;;13.60;99.90;;;;;;5058981;28;20450;-82
2022/10/27 05:39:19;;;;;;;3.57;1.87;;;13.60;99.90;;;;;;5055884;28;20491;-81
2022/10/27 05:41:46;;;;;;;6.77;2.13;;;13.60;99.90;;;;;;5058331;28;20473;-82
2022/10/27 05:44:14;;;;;;;5.20;1.87;;;13.60;99.90;;;;;;5064558;28;20452;-82
2022/10/27 05:46:41;;;;;;;6.27;1.73;;;13.60;99.90;;;;;;5071271;28;20897;-82
2022/10/27 05:49:08;;;;;;;3.00;1.73;;;13.60;99.90;;;;;;5056767;28;20485;-82
2022/10/27 05:51:34;;;;;;;2.67;1.40;;;13.50;99.90;;;;;;5055513;28;20548;-85
2022/10/27 05:54:01;;;;;;;7.00;1.47;;;13.50;99.90;;;;;;5066523;28;20839;-85
2022/10/27 05:56:28;;;;;;;2.27;1.63;;;13.50;99.90;;;;;;5075219;28;20455;-85
2022/10/27 05:58:55;;;;;;;2.77;1.50;;;13.50;99.90;;;;;;5068068;28;20480;-83
2022/10/27 06:01:23;;;;;;;2.40;1.73;;;13.50;99.90;;;;;;5063328;28;20545;-85
2022/10/27 06:03:50;;;;;;;4.40;1.77;;;13.50;99.90;;;;;;5062260;28;20456;-85
2022/10/27 06:06:16;;;;;;;4.97;2.00;;;13.50;99.90;;;;;;5058774;28;20447;-86
2022/10/27 06:08:43;;;;;;;3.93;1.90;;;13.50;99.90;;;;;;5071222;28;20459;-85
2022/10/27 06:11:10;;;;;;;3.80;1.37;;;13.50;99.90;;;;;;5059000;28;20486;-86
2022/10/27 06:13:37;;;;;;;2.47;1.70;;;13.50;99.90;;;;;;5070559;28;20527;-85
2022/10/27 06:16:04;;;;;;;3.30;1.80;;;13.50;99.90;;;;;;5062336;28;20462;-86
2022/10/27 06:18:32;;;;;;;4.83;1.67;;;13.50;99.90;;;;;;5055103;28;20484;-86
2022/10/27 06:20:59;;;;;;;7.37;1.93;;;13.50;99.90;;;;;;5068394;28;20489;-85
2022/10/27 06:23:26;;;;;;;3.33;1.53;;;13.50;99.90;;;;;;5061976;28;21042;-86
2022/10/27 06:25:55;;;;;;;2.57;1.80;;;13.50;99.90;;;;;;5056536;28;20865;-84
2022/10/27 06:28:22;;;;;;;2.87;1.60;;;13.40;99.90;;;;;;5055940;28;20453;-85
2022/10/27 06:30:48;;;;;;;7.07;2.10;;;13.40;99.90;;;;;;5056112;28;20525;-85
2022/10/27 06:33:15;;;;;;;8.93;2.40;;;13.40;99.90;;;;;;5055985;28;20448;-84
2022/10/27 06:35:45;;;;;;;5.27;2.00;;;13.40;99.90;;;;;;5055635;28;20528;-84
2022/10/27 06:38:15;;;;;;;3.00;1.50;;;13.40;99.90;;;;;;5054568;28;20450;-84
2022/10/27 06:40:42;;;;;;;3.90;1.70;;;13.40;99.90;;;;;;5054872;28;20991;-85
2022/10/27 06:43:09;;;;;;;8.23;1.80;;;13.40;99.90;;;;;;5055056;28;20453;-84
2022/10/27 06:45:36;;;;;;;3.37;1.70;;;13.40;99.90;;;;;;5054820;28;20448;-85
2022/10/27 06:48:05;;;;;;;4.53;1.83;;;13.40;99.90;;;;;;5054045;28;20898;-85
2022/10/27 06:50:32;;;;;;;3.23;1.83;;;13.40;99.90;;;;;;5054193;28;20475;-85
2022/10/27 06:53:01;;;;;;;3.30;1.70;;;13.40;99.90;;;;;;5054803;28;20474;-85
2022/10/27 06:55:28;;;;;;;3.27;1.70;;;13.40;99.90;;;;;;5054928;28;20888;-85
2022/10/27 06:57:55;;;;;;;2.90;1.77;;;13.40;99.90;;;;;;5054267;28;20534;-84
2022/10/27 07:00:22;;;;;;;3.40;1.60;;;13.40;99.90;;;;;;5054369;28;20500;-85
2022/10/27 07:02:49;;;;;;;2.73;1.53;;;13.40;99.90;;;;;;5054813;28;20457;-85
2022/10/27 07:05:16;;;;;;;3.60;2.07;;;13.40;99.90;;;;;;5054486;28;20457;-84
2022/10/27 07:07:46;;;;;;;3.80;1.60;;;13.50;99.90;;;;;;5054286;28;20478;-84
2022/10/27 07:10:14;;;;;;;3.20;1.67;;;13.50;99.90;;;;;;5054262;28;20472;-85
2022/10/27 07:12:52;;;;;;;4.20;2.20;;;13.50;99.90;;;;;;5053958;28;20977;-84
2022/10/27 07:15:19;;;;;;;2.90;1.90;;;13.60;99.90;;;;;;5054431;28;20435;-85
2022/10/27 07:17:45;;;;;;;4.03;1.63;;;13.60;99.90;;;;;;5053765;28;20455;-84
2022/10/27 07:20:12;;;;;;;3.00;1.70;;;13.60;99.90;;;;;;5053012;28;20499;-85
2022/10/27 07:22:40;;;;;;;4.40;2.63;;;13.60;99.90;;;;;;5054050;28;20438;-84
2022/10/27 07:25:08;;;;;;;10.97;2.30;;;13.70;99.90;;;;;;5054436;28;20463;-84
2022/10/27 07:27:36;;;;;;;3.17;1.93;;;13.70;99.90;;;;;;5054189;28;20469;-84
2022/10/27 07:30:04;;;;;;;4.20;1.83;;;13.70;99.90;;;;;;5053589;28;20479;-85
2022/10/27 07:32:30;;;;;;;5.00;2.33;;;13.80;99.90;;;;;;5055493;28;20450;-84
2022/10/27 07:34:57;;;;;;;4.37;2.30;;;13.90;99.90;;;;;;5056782;28;20454;-84
2022/10/27 07:37:24;;;;;;;3.63;2.50;;;13.90;99.90;;;;;;5054983;28;20458;-84
2022/10/27 07:39:51;;;;;;;4.77;2.30;;;13.90;99.90;;;;;;5054005;28;20492;-85
2022/10/27 07:42:18;;;;;;;3.23;2.20;;;14.00;99.90;;;;;;5055587;28;20955;-84
2022/10/27 07:44:46;;;;;;;6.07;2.00;;;14.10;99.90;;;;;;5055569;28;21018;-85
2022/10/27 07:47:12;;;;;;;9.30;2.17;;;14.10;99.90;;;;;;5055468;28;20454;-84
2022/10/27 07:49:39;;;;;;;4.73;2.00;;;14.10;99.90;;;;;;5059210;28;20436;-86
2022/10/27 07:52:06;;;;;;;6.00;2.00;;;14.20;99.90;;;;;;5058477;28;20477;-85
2022/10/27 07:54:34;;;;;;;8.73;2.07;;;14.30;99.90;;;;;;5059408;28;20975;-84
2022/10/27 07:57:01;;;;;;;4.80;1.93;;;14.40;99.90;;;;;;5060162;28;20466;-84
2022/10/27 07:59:27;;;;;;;5.10;1.70;;;14.40;99.90;;;;;;5058217;28;21053;-85
2022/10/27 08:01:56;;;;;;;4.23;1.50;;;14.50;99.90;;;;;;5057811;28;20469;-83
2022/10/27 08:04:22;;;;;;;5.90;1.47;;;14.60;99.90;;;;;;5056763;28;20454;-85
2022/10/27 08:06:49;;;;;;;4.23;1.63;;;14.60;99.90;;;;;;5056192;28;20462;-85
2022/10/27 08:09:16;;;;;;;9.13;1.73;;;14.70;99.90;;;;;;5055119;28;20440;-85
2022/10/27 08:11:43;;;;;;;5.00;1.77;;;14.80;99.90;;;;;;5057040;28;20594;-84
2022/10/27 08:14:13;;;;;;;4.70;1.53;;;14.90;99.90;;;;;;5057320;28;20447;-85
2022/10/27 08:16:39;;;;;;;4.30;1.60;;;15.00;99.90;;;;;;5057629;28;20457;-85
2022/10/27 08:19:07;;;;;;;3.70;1.97;;;15.10;99.90;;;;;;5054811;28;20486;-84
2022/10/27 08:21:34;;;;;;;3.20;1.90;;;15.30;99.90;;;;;;5054837;28;20487;-84
2022/10/27 08:24:01;;;;;;;4.33;1.40;;;15.40;99.90;;;;;;5056016;28;20448;-85
2022/10/27 08:26:28;;;;;;;2.00;1.30;;;15.50;99.90;;;;;;5056695;28;20458;-85
2022/10/27 08:28:55;;;;;;;4.47;1.53;;;15.50;99.90;;;;;;5055511;28;20454;-84
2022/10/27 08:31:23;;;;;;;2.60;1.40;;;15.60;99.90;;;;;;5056387;28;20482;-84
2022/10/27 08:33:50;;;;;;;6.70;1.67;;;15.60;99.90;;;;;;5054744;28;20478;-84
2022/10/27 08:36:18;;;;;;;3.70;1.20;;;15.70;99.90;;;;;;5054100;28;20448;-84
2022/10/27 08:38:45;;;;;;;4.03;1.43;;;15.80;99.90;;;;;;5052032;28;20577;-85
2022/10/27 08:41:23;;;;;;;4.07;1.83;;;15.80;99.90;;;;;;5055719;28;20539;-85
2022/10/27 08:44:16;;;;;;;2.07;1.17;;;15.90;99.90;;;;;;5060008;28;20448;-84
2022/10/27 08:46:46;;;;;;;4.23;1.30;;;15.90;99.90;;;;;;5059408;28;20459;-84
2022/10/27 08:49:27;;;;;;;3.73;1.17;;;16.00;99.90;;;;;;5058658;28;20530;-84
2022/10/27 08:51:58;;;;;;;3.13;1.13;;;16.10;99.90;;;;;;5059491;28;20475;-85
2022/10/27 08:54:27;;;;;;;2.43;1.10;;;16.20;99.90;;;;;;5059864;28;20443;-85
2022/10/27 08:56:58;;;;;;;2.30;1.20;;;16.20;99.90;;;;;;5059071;28;20454;-84
2022/10/27 08:59:26;;;;;;;3.87;1.47;;;16.20;99.90;;;;;;5058618;28;20490;-85
2022/10/27 09:02:00;;;;;;;2.17;1.43;;;16.30;99.90;;;;;;5059627;28;20535;-84
2022/10/27 09:04:47;;;;;;;3.53;1.37;;;16.30;99.90;;;;;;5058247;28;20431;-85
2022/10/27 09:07:25;;;;;;;3.90;1.47;;;16.40;99.90;;;;;;5061079;28;20826;-84
2022/10/27 09:09:55;;;;;;;1.90;1.27;;;16.40;99.90;;;;;;5060266;28;20828;-85
2022/10/27 09:12:50;;;;;;;7.30;1.47;;;16.50;99.90;;;;;;5060866;28;20453;-85
2022/10/27 09:15:28;;;;;;;5.70;1.70;;;16.60;99.90;;;;;;5060742;28;20465;-85
2022/10/27 09:18:02;;;;;;;3.90;1.50;;;16.60;99.90;;;;;;5061481;28;20440;-85
2022/10/27 09:20:33;;;;;;;4.67;1.30;;;16.70;99.90;;;;;;5061375;28;20505;-85
2022/10/27 09:23:04;;;;;;;3.47;2.00;;;16.80;99.90;;;;;;5062456;28;20446;-83
2022/10/27 09:25:32;;;;;;;3.87;1.40;;;17.00;99.90;;;;;;5059853;28;20446;-85
2022/10/27 09:28:00;;;;;;;3.97;1.27;;;17.00;99.90;;;;;;5059086;28;20990;-85
2022/10/27 09:30:33;;;;;;;3.50;1.50;;;17.10;99.90;;;;;;5059554;28;20471;-85
2022/10/27 09:33:00;;;;;;;2.77;1.20;;;17.20;99.90;;;;;;5061003;28;20548;-86
2022/10/27 09:35:28;;;;;;;2.90;1.20;;;17.30;99.90;;;;;;5060369;28;20457;-84
2022/10/27 09:37:57;;;;;;;3.40;1.30;;;17.50;99.90;;;;;;5058201;28;20940;-84
2022/10/27 09:40:28;;;;;;;3.27;1.40;;;17.60;99.90;;;;;;5061013;28;20483;-84
2022/10/27 09:42:56;;;;;;;4.93;1.83;;;17.60;99.90;;;;;;5059135;28;20445;-86
2022/10/27 09:45:25;;;;;;;2.03;0.90;;;17.70;99.90;;;;;;5060599;28;20457;-85
2022/10/27 09:47:54;;;;;;;3.03;0.90;;;17.80;99.90;;;;;;5060581;28;20457;-84
2022/10/27 09:50:23;;;;;;;5.00;1.10;;;18.00;99.90;;;;;;5058909;28;21004;-85
2022/10/27 09:52:51;;;;;;;2.43;1.20;;;18.10;99.90;;;;;;5058327;28;20548;-86
2022/10/27 09:55:18;;;;;;;4.03;0.97;;;18.20;99.90;;;;;;5058805;28;20445;-84
2022/10/27 09:57:49;;;;;;;3.73;1.20;;;18.30;99.90;;;;;;5057110;28;20447;-85
2022/10/27 10:00:27;;;;;;;2.03;0.90;;;18.40;99.90;;;;;;5057825;28;20490;-85
2022/10/27 10:03:02;;;;;;;4.10;0.93;;;18.60;99.90;;;;;;5056448;28;20461;-85
2022/10/27 10:05:31;;;;;;;2.03;0.83;;;18.70;99.90;;;;;;5056588;28;20801;-84
2022/10/27 10:08:22;;;;;;;2.80;1.00;;;18.80;99.90;;;;;;5055397;28;20529;-85
2022/10/27 10:10:56;;;;;;;2.23;1.00;;;18.90;99.90;;;;;;5056507;28;20881;-86
2022/10/27 10:13:26;;;;;;;2.70;1.00;;;19.00;99.90;;;;;;5055342;28;20465;-85
2022/10/27 10:16:07;;;;;;;2.97;0.90;;;19.20;99.90;;;;;;5055043;28;20448;-84
2022/10/27 10:18:35;;;;;;;4.77;1.10;;;19.30;99.90;;;;;;5055161;28;20436;-85
2022/10/27 10:21:05;;;;;;;4.30;1.10;;;19.40;99.90;;;;;;5054626;28;20574;-85
2022/10/27 10:23:34;;;;;;;2.30;1.00;;;19.70;99.90;;;;;;5055588;28;20458;-85
2022/10/27 10:26:02;;;;;;;3.50;1.37;;;20.00;99.90;;;;;;5054916;28;20459;-86
2022/10/27 10:28:36;;;;;;;1.87;1.00;;;20.40;99.90;;;;;;5054225;28;20833;-84
2022/10/27 10:31:06;;;;;;;3.83;1.30;;;20.90;99.90;;;;;;5055347;28;20845;-84
2022/10/27 10:33:37;;;;;;;4.73;1.20;;;21.40;99.90;;;;;;5054874;28;20995;-86
2022/10/27 10:36:19;;;;;;;2.87;1.23;;;21.80;99.90;;;;;;5055481;28;20452;-85
2022/10/27 10:38:50;;;;;;;7.23;1.53;;;22.20;99.90;;;;;;5054611;28;20455;-86
2022/10/27 10:41:20;;;;;;;3.63;1.10;;;22.40;99.90;;;;;;5054893;28;20578;-85
2022/10/27 10:44:08;;;;;;;2.53;1.03;;;22.80;99.90;;;;;;5055912;28;20467;-86
2022/10/27 10:46:36;;;;;;;3.03;1.50;;;23.00;99.90;;;;;;5055292;28;20444;-85
2022/10/27 10:49:02;;;;;;;4.90;1.60;;;23.00;99.90;;;;;;5056250;28;20462;-86
2022/10/27 10:51:32;;;;;;;3.10;1.27;;;23.20;99.90;;;;;;5055534;28;20464;-85
2022/10/27 10:54:02;;;;;;;3.40;1.40;;;23.60;99.90;;;;;;5053549;28;20450;-86
2022/10/27 10:56:31;;;;;;;3.57;1.50;;;24.00;99.90;;;;;;5059565;28;20452;-86
2022/10/27 10:59:13;;;;;;;7.20;1.50;;;24.70;99.90;;;;;;5055880;28;20475;-85
2022/10/27 11:01:43;;;;;;;2.70;1.00;;;25.30;99.90;;;;;;5054913;28;20494;-86
2022/10/27 11:04:12;;;;;;;6.17;1.20;;;25.70;99.90;;;;;;5055316;28;20451;-85
2022/10/27 11:06:50;;;;;;;6.10;1.40;;;26.10;99.90;;;;;;5053953;28;20473;-85
2022/10/27 11:09:17;;;;;;;5.33;1.70;;;26.40;99.90;;;;;;5053968;28;20456;-86
2022/10/27 11:11:46;;;;;;;4.90;1.40;;;26.80;99.90;;;;;;5054710;28;20466;-85
2022/10/27 11:14:18;;;;;;;6.90;1.83;;;26.90;99.90;;;;;;5054688;28;20448;-85
2022/10/27 11:16:51;;;;;;;4.17;1.20;;;27.00;99.90;;;;;;5054609;28;20456;-85
2022/10/27 11:19:20;;;;;;;2.73;1.20;;;26.90;99.90;;;;;;5054725;28;20832;-84
2022/10/27 11:21:53;;;;;;;4.93;1.97;;;27.50;99.90;;;;;;5053997;28;20525;-85
2022/10/27 11:24:26;;;;;;;3.83;1.60;;;28.20;99.90;;;;;;5055233;28;20466;-85
2022/10/27 11:26:59;;;;;;;3.10;1.23;;;28.20;99.90;;;;;;5054044;28;20455;-84
2022/10/27 11:29:38;;;;;;;5.80;1.50;;;28.50;99.90;;;;;;5054949;28;20517;-84
2022/10/27 11:32:11;;;;;;;3.27;1.17;;;29.00;99.90;;;;;;5055326;28;20464;-85
2022/10/27 11:34:47;;;;;;;4.07;1.40;;;29.20;99.90;;;;;;5054957;28;20447;-85
2022/10/27 11:37:21;;;;;;;4.27;1.43;;;28.80;99.90;;;;;;5054961;28;20451;-87
2022/10/27 11:39:54;;;;;;;3.30;1.47;;;29.20;99.90;;;;;;5053055;28;20428;-84
2022/10/27 11:42:27;;;;;;;7.37;1.40;;;29.30;99.90;;;;;;5053785;28;20432;-85
2022/10/27 11:45:05;;;;;;;2.50;1.30;;;29.80;99.90;;;;;;5053831;28;20451;-84
2022/10/27 11:47:37;;;;;;;3.77;1.47;;;30.20;99.90;;;;;;5060084;28;20446;-84
2022/10/27 11:50:09;;;;;;;5.80;1.37;;;30.00;99.90;;;;;;5056231;28;20655;-84
2022/10/27 11:52:41;;;;;;;6.20;1.70;;;29.90;99.90;;;;;;5057119;28;20451;-84
2022/10/27 11:55:10;;;;;;;4.07;1.17;;;30.10;99.90;;;;;;5055565;28;20451;-83
2022/10/27 11:57:44;;;;;;;5.40;1.90;;;30.10;99.90;;;;;;5056945;28;20454;-85
2022/10/27 12:00:20;;;;;;;4.93;1.57;;;30.10;99.90;;;;;;5057737;28;21024;-84
2022/10/27 12:03:19;;;;;;;8.03;1.73;;;30.10;99.90;;;;;;5057729;28;20455;-85
2022/10/27 12:05:51;;;;;;;4.40;1.40;;;29.60;99.90;;;;;;5054016;28;20466;-85
2022/10/27 12:08:27;;;;;;;5.23;1.60;;;29.70;99.90;;;;;;5056730;28;20466;-83
2022/10/27 12:11:04;;;;;;;3.33;1.23;;;29.20;99.90;;;;;;5064508;28;20473;-84
2022/10/27 12:13:38;;;;;;;3.53;1.67;;;28.90;99.90;;;;;;5050282;28;20451;-83
2022/10/27 12:16:13;;;;;;;4.97;1.57;;;29.20;99.90;;;;;;5061268;28;20451;-83
2022/10/27 12:18:46;;;;;;;2.63;1.57;;;29.20;99.90;;;;;;5064327;28;20440;-84
2022/10/27 12:21:17;;;;;;;5.70;1.50;;;28.60;99.90;;;;;;5064267;28;20502;-85
2022/10/27 12:23:53;;;;;;;3.20;1.37;;;28.30;99.90;;;;;;5063931;28;20448;-84
2022/10/27 12:26:23;;;;;;;5.10;1.50;;;27.80;99.90;;;;;;5062187;28;20446;-85
2022/10/27 12:28:51;;;;;;;4.77;1.90;;;27.30;99.90;;;;;;5066425;28;20458;-86
2022/10/27 12:31:24;;;;;;;6.50;1.80;;;26.90;99.90;;;;;;5085327;28;20554;-84
2022/10/27 12:33:57;;;;;;;4.10;1.70;;;26.40;99.90;;;;;;5078093;28;20518;-85
2022/10/27 12:36:30;;;;;;;4.60;1.43;;;26.30;99.90;;;;;;5073148;28;20485;-85
2022/10/27 12:39:05;;;;;;;4.73;1.33;;;26.10;99.90;;;;;;5084136;28;20502;-85
2022/10/27 12:41:37;;;;;;;4.10;1.37;;;26.00;99.90;;;;;;5080058;22;20502;-85
2022/10/27 12:44:16;;;;;;;5.43;1.73;;;25.80;99.90;;;;;;5064151;28;20455;-85
2022/10/27 12:47:10;;;;;;;6.00;1.50;;;25.60;99.90;;;;;;5062698;28;20894;-84
2022/10/27 12:49:44;;;;;;;6.23;1.50;;;25.50;99.90;;;;;;5051201;28;20443;-85
2022/10/27 12:52:17;;;;;;;8.57;1.50;;;25.80;99.90;;;;;;5046642;28;20472;-85
2022/10/27 12:54:58;;;;;;;3.67;1.60;;;25.70;99.90;;;;;;5059412;28;20454;-84
2022/10/27 12:57:40;;;;;;;5.33;1.67;;;26.10;99.90;;;;;;5056452;28;20994;-84
2022/10/27 13:00:11;;;;;;;3.20;1.70;;;26.40;99.90;;;;;;5044666;28;20448;-84
2022/10/27 13:02:47;;;;;;;6.00;1.80;;;26.80;99.90;;;;;;5035970;28;20533;-85